Time;durP1;ratioP1;P1;durP2;ratioP2;P2;SDS_P1;SDS_P2;PMS_P1;PMS_P2;Temp;Humidity;BMP_temperature;BMP_pressure;BME280_temperature;BME280_humidity;BME280_pressure;Samples;Min_cycle;Max_cycle;Signal;HPM_P1;HPM_P2
2021/09/24 00:00:34;;;;;;;6.65;3.67;;;14.60;84.90;;;;;;5010788;28;20038;-88
2021/09/24 00:03:00;;;;;;;4.22;3.58;;;14.50;85.00;;;;;;5001759;28;20010;-88
2021/09/24 00:05:29;;;;;;;5.05;3.45;;;14.40;84.90;;;;;;5015770;28;20030;-88
2021/09/24 00:08:37;;;;;;;4.65;3.65;;;14.40;85.10;;;;;;5015399;28;20025;-89
2021/09/24 00:11:39;;;;;;;3.70;3.33;;;14.40;85.40;;;;;;5015016;28;20037;-88
2021/09/24 00:14:06;;;;;;;6.82;3.30;;;14.40;85.50;;;;;;5014367;28;20366;-88
2021/09/24 00:16:34;;;;;;;3.50;3.20;;;14.40;85.50;;;;;;4997054;28;20486;-87
2021/09/24 00:19:00;;;;;;;3.67;3.15;;;14.40;85.80;;;;;;4994599;28;20279;-88
2021/09/24 00:21:36;;;;;;;4.85;3.50;;;14.40;85.90;;;;;;4994771;28;20080;-86
2021/09/24 00:24:02;;;;;;;5.35;3.75;;;14.40;86.10;;;;;;5012665;28;20018;-87
2021/09/24 00:26:29;;;;;;;4.93;3.17;;;14.30;85.90;;;;;;4986533;28;20030;-87
2021/09/24 00:28:58;;;;;;;4.80;3.30;;;14.30;86.00;;;;;;4984707;28;20018;-86
2021/09/24 00:31:25;;;;;;;3.78;3.38;;;14.40;86.20;;;;;;4992930;28;20143;-87
2021/09/24 00:33:51;;;;;;;4.65;3.53;;;14.30;86.20;;;;;;4993387;28;20041;-87
2021/09/24 00:36:16;;;;;;;5.53;3.50;;;14.30;86.10;;;;;;4991512;28;20113;-89
2021/09/24 00:38:43;;;;;;;4.55;3.83;;;14.20;86.10;;;;;;4993753;28;20402;-87
2021/09/24 00:41:10;;;;;;;5.32;3.38;;;14.30;86.20;;;;;;4993086;28;20030;-86
2021/09/24 00:43:36;;;;;;;4.63;3.00;;;14.20;86.20;;;;;;5009573;28;20096;-85
2021/09/24 00:46:03;;;;;;;4.90;3.28;;;14.20;86.40;;;;;;4986604;28;20061;-86
2021/09/24 00:48:28;;;;;;;3.78;3.45;;;14.20;86.40;;;;;;4991937;28;20033;-86
2021/09/24 00:50:54;;;;;;;4.78;3.83;;;14.10;86.30;;;;;;4992000;28;20071;-87
2021/09/24 00:53:20;;;;;;;5.13;3.53;;;14.10;86.50;;;;;;5010971;28;20545;-87
2021/09/24 00:55:47;;;;;;;6.50;3.63;;;14.10;86.60;;;;;;4991555;28;20516;-87
2021/09/24 00:58:12;;;;;;;3.70;3.28;;;14.00;86.70;;;;;;5010614;28;20060;-85
2021/09/24 01:00:38;;;;;;;4.30;3.78;;;14.00;86.70;;;;;;4989753;28;20030;-88
2021/09/24 01:03:04;;;;;;;3.90;3.50;;;14.10;86.90;;;;;;4992426;28;20570;-88
2021/09/24 01:05:30;;;;;;;4.90;3.67;;;14.00;86.80;;;;;;5002426;28;20022;-87
2021/09/24 01:07:56;;;;;;;4.53;3.97;;;14.00;86.80;;;;;;4991073;28;20021;-87
2021/09/24 01:10:22;;;;;;;5.78;3.58;;;14.00;87.00;;;;;;4996967;28;20034;-87
2021/09/24 01:12:48;;;;;;;3.78;3.35;;;14.00;87.10;;;;;;4994392;28;20022;-87
2021/09/24 01:15:17;;;;;;;4.85;4.05;;;13.90;87.10;;;;;;4994330;28;20041;-88
2021/09/24 01:17:45;;;;;;;6.05;3.75;;;13.90;87.20;;;;;;5012715;28;20096;-85
2021/09/24 01:20:13;;;;;;;4.15;3.70;;;13.90;87.80;;;;;;4995228;28;20064;-86
2021/09/24 01:22:39;;;;;;;4.68;3.50;;;13.80;87.40;;;;;;4986936;28;20044;-86
2021/09/24 01:25:07;;;;;;;5.68;3.78;;;13.90;87.50;;;;;;4995268;28;20022;-87
2021/09/24 01:27:34;;;;;;;5.13;3.80;;;13.80;87.50;;;;;;4979767;28;20026;-86
2021/09/24 01:29:59;;;;;;;4.38;3.70;;;13.80;87.50;;;;;;4992470;28;20095;-88
2021/09/24 01:32:25;;;;;;;4.55;3.70;;;13.80;87.70;;;;;;4994365;28;20026;-86
2021/09/24 01:34:51;;;;;;;3.92;3.53;;;13.80;87.70;;;;;;4995484;28;20053;-85
2021/09/24 01:37:16;;;;;;;4.13;3.60;;;13.80;87.80;;;;;;5011844;28;20043;-88
2021/09/24 01:39:42;;;;;;;4.70;3.88;;;13.70;87.80;;;;;;5010435;28;20074;-89
2021/09/24 01:42:08;;;;;;;4.20;3.78;;;13.70;87.80;;;;;;4996374;28;20030;-85
2021/09/24 01:44:34;;;;;;;4.50;3.53;;;13.70;87.90;;;;;;4994196;28;20462;-88
2021/09/24 01:47:03;;;;;;;5.88;3.80;;;13.70;88.10;;;;;;4994181;28;20117;-86
2021/09/24 01:49:28;;;;;;;3.88;3.47;;;13.60;88.20;;;;;;4993926;28;20030;-88
2021/09/24 01:51:54;;;;;;;9.07;4.25;;;13.60;88.10;;;;;;4994190;28;20036;-86
2021/09/24 01:54:21;;;;;;;3.65;2.97;;;13.60;88.20;;;;;;5002358;28;20137;-86
2021/09/24 01:56:47;;;;;;;6.35;3.90;;;13.60;88.40;;;;;;4986314;28;20021;-88
2021/09/24 01:59:13;;;;;;;6.15;3.88;;;13.50;88.40;;;;;;5011074;28;20037;-85
2021/09/24 02:01:39;;;;;;;5.38;3.67;;;13.50;88.40;;;;;;4993269;28;20033;-88
2021/09/24 02:04:05;;;;;;;7.03;3.80;;;13.50;88.50;;;;;;4993733;28;20022;-85
2021/09/24 02:06:31;;;;;;;4.50;3.97;;;13.40;88.60;;;;;;4987920;28;20072;-87
2021/09/24 02:08:57;;;;;;;5.30;4.30;;;13.40;88.80;;;;;;5011964;28;20101;-86
2021/09/24 02:11:23;;;;;;;6.07;4.03;;;13.40;88.80;;;;;;4997671;28;20034;-88
2021/09/24 02:13:49;;;;;;;4.97;3.88;;;13.40;89.00;;;;;;5030934;28;20033;-84
2021/09/24 02:16:15;;;;;;;6.00;4.30;;;13.40;89.10;;;;;;5009842;28;20030;-85
2021/09/24 02:18:41;;;;;;;6.45;3.95;;;13.40;89.10;;;;;;5003107;28;20494;-87
2021/09/24 02:21:08;;;;;;;6.32;3.83;;;13.30;89.00;;;;;;5000664;28;20042;-85
2021/09/24 02:23:34;;;;;;;5.53;4.43;;;13.30;89.10;;;;;;5015341;28;20026;-85
2021/09/24 02:26:00;;;;;;;6.15;3.97;;;13.20;89.10;;;;;;5027316;28;20022;-88
2021/09/24 02:28:26;;;;;;;5.05;3.92;;;13.20;89.30;;;;;;5021214;28;20037;-88
2021/09/24 02:30:52;;;;;;;5.35;4.68;;;13.20;89.40;;;;;;4998376;28;20033;-87
2021/09/24 02:33:18;;;;;;;5.05;3.70;;;13.20;89.50;;;;;;4998065;28;20525;-89
2021/09/24 02:35:43;;;;;;;6.80;4.47;;;13.10;89.50;;;;;;4997992;28;20115;-90
2021/09/24 02:38:12;;;;;;;5.40;4.00;;;13.10;89.70;;;;;;4998805;28;20026;-86
2021/09/24 02:40:41;;;;;;;3.97;3.58;;;13.10;89.70;;;;;;4997661;28;20037;-89
2021/09/24 02:43:06;;;;;;;6.28;4.10;;;13.10;90.00;;;;;;4987174;28;20030;-87
2021/09/24 02:45:32;;;;;;;7.10;4.43;;;13.00;90.00;;;;;;5014486;28;20033;-89
2021/09/24 02:47:58;;;;;;;5.45;4.45;;;13.10;90.00;;;;;;5015233;28;20032;-87
2021/09/24 02:50:34;;;;;;;6.07;4.20;;;13.00;90.00;;;;;;4996779;28;20101;-87
2021/09/24 02:53:00;;;;;;;7.05;4.22;;;13.10;90.10;;;;;;5005352;28;20036;-87
2021/09/24 02:55:45;;;;;;;5.35;4.32;;;13.00;90.00;;;;;;4993038;28;20030;-87
2021/09/24 02:58:14;;;;;;;5.20;4.63;;;12.90;90.00;;;;;;4992809;28;20410;-86
2021/09/24 03:00:40;;;;;;;6.45;4.38;;;12.90;90.10;;;;;;4997761;28;20402;-88
2021/09/24 03:03:11;;;;;;;9.27;5.00;;;12.90;90.20;;;;;;4996918;28;20022;-87
2021/09/24 03:05:42;;;;;;;5.15;4.40;;;12.90;90.30;;;;;;4996511;28;20088;-88
2021/09/24 03:08:13;;;;;;;6.82;4.68;;;12.80;90.30;;;;;;4996473;28;20062;-87
2021/09/24 03:10:38;;;;;;;7.55;4.72;;;12.80;90.30;;;;;;4994486;28;20025;-87
2021/09/24 03:13:04;;;;;;;4.78;4.22;;;12.80;90.40;;;;;;5000847;28;20034;-88
2021/09/24 03:15:30;;;;;;;6.65;4.78;;;12.70;90.30;;;;;;4996390;28;20084;-88
2021/09/24 03:17:56;;;;;;;6.07;4.55;;;12.70;90.40;;;;;;4996920;28;20099;-88
2021/09/24 03:20:26;;;;;;;7.00;4.68;;;12.60;90.50;;;;;;5012066;28;20555;-88
2021/09/24 03:22:53;;;;;;;6.60;5.05;;;12.60;90.50;;;;;;4996697;28;20022;-88
2021/09/24 03:25:18;;;;;;;5.25;4.40;;;12.70;90.60;;;;;;4986154;28;20026;-86
2021/09/24 03:27:44;;;;;;;5.88;4.55;;;12.60;90.60;;;;;;5004059;28;20025;-87
2021/09/24 03:30:10;;;;;;;6.50;4.70;;;12.60;90.70;;;;;;4996318;28;20048;-88
2021/09/24 03:32:36;;;;;;;5.82;4.85;;;12.60;90.70;;;;;;4994670;28;20076;-87
2021/09/24 03:35:03;;;;;;;7.00;5.05;;;12.70;90.80;;;;;;4995042;28;20029;-88
2021/09/24 03:37:29;;;;;;;4.85;4.32;;;12.60;90.80;;;;;;4996143;28;20040;-88
2021/09/24 03:39:57;;;;;;;6.90;4.38;;;12.60;90.80;;;;;;5002407;28;20022;-87
2021/09/24 03:42:23;;;;;;;5.03;4.50;;;12.50;90.80;;;;;;4987941;28;20026;-86
2021/09/24 03:44:49;;;;;;;5.78;4.68;;;12.50;90.80;;;;;;4993855;28;20035;-87
2021/09/24 03:47:14;;;;;;;8.02;5.50;;;12.50;90.90;;;;;;4991296;28;20141;-86
2021/09/24 03:49:40;;;;;;;7.07;4.85;;;12.50;90.90;;;;;;5010540;28;20109;-85
2021/09/24 03:52:06;;;;;;;6.70;5.05;;;12.50;90.90;;;;;;5016815;28;20026;-86
2021/09/24 03:54:31;;;;;;;7.07;5.40;;;12.40;90.90;;;;;;4994548;28;20491;-87
2021/09/24 03:56:57;;;;;;;7.03;5.15;;;12.40;91.00;;;;;;4996253;28;20470;-88
2021/09/24 03:59:28;;;;;;;7.75;5.38;;;12.30;91.00;;;;;;5064160;22;20046;-90
2021/09/24 04:02:02;;;;;;;6.45;5.18;;;12.30;91.10;;;;;;4969745;28;20026;-89
2021/09/24 04:04:54;;;;;;;6.55;4.90;;;12.30;91.10;;;;;;4981238;28;20035;-89
2021/09/24 04:07:34;;;;;;;8.20;5.22;;;12.20;91.30;;;;;;4966840;28;20049;-89
2021/09/24 04:10:53;;;;;;;6.70;5.00;;;12.20;91.30;;;;;;4989666;28;20030;-89
2021/09/24 04:13:47;;;;;;;;;;;;;;;;;;;;;
2021/09/24 04:16:34;;;;;;;7.40;5.63;;;12.20;91.20;;;;;;4992588;28;20038;-88
2021/09/24 04:19:07;;;;;;;7.43;5.47;;;12.20;91.30;;;;;;4962362;28;20041;-88
2021/09/24 04:21:41;;;;;;;7.55;5.55;;;12.20;91.30;;;;;;4984512;28;20630;-88
2021/09/24 04:24:18;;;;;;;7.10;5.18;;;12.20;91.30;;;;;;4975838;28;20080;-88
2021/09/24 04:26:57;;;;;;;8.25;5.88;;;12.20;91.30;;;;;;4976489;28;20061;-89
2021/09/24 04:29:28;;;;;;;8.48;5.55;;;12.20;91.40;;;;;;4971883;28;20027;-90
2021/09/24 04:32:14;;;;;;;7.70;5.55;;;12.20;91.30;;;;;;4961655;28;20022;-89
2021/09/24 04:34:49;;;;;;;8.23;5.82;;;12.20;91.50;;;;;;4967288;28;20034;-90
2021/09/24 04:37:20;;;;;;;11.80;6.20;;;12.10;91.40;;;;;;4967991;28;20380;-91
2021/09/24 04:40:01;;;;;;;7.65;5.45;;;12.20;91.50;;;;;;4956504;28;20483;-90
2021/09/24 04:42:37;;;;;;;11.35;6.03;;;12.10;91.50;;;;;;4966706;28;20057;-89
2021/09/24 04:45:26;;;;;;;8.35;5.72;;;12.20;91.50;;;;;;4974986;28;20018;-88
2021/09/24 04:48:20;;;;;;;8.52;5.82;;;12.20;91.70;;;;;;4970649;28;20031;-89
2021/09/24 04:51:00;;;;;;;8.93;6.30;;;12.20;91.70;;;;;;4974024;28;20034;-89
2021/09/24 04:53:35;;;;;;;7.57;5.32;;;12.20;91.60;;;;;;4963948;28;20061;-90
2021/09/24 04:56:38;;;;;;;7.80;5.53;;;12.20;91.70;;;;;;4962652;28;20117;-89
2021/09/24 04:59:16;;;;;;;8.70;5.78;;;12.20;91.90;;;;;;4963737;28;20091;-88
2021/09/24 05:01:55;;;;;;;8.35;5.28;;;12.30;91.80;;;;;;4975403;28;20027;-89
2021/09/24 05:04:34;;;;;;;8.63;6.10;;;12.40;91.90;;;;;;4993232;28;20030;-87
2021/09/24 05:07:50;;;;;;;8.23;5.15;;;12.40;91.90;;;;;;4978902;28;20041;-89
2021/09/24 05:10:19;;;;;;;10.20;5.57;;;12.40;91.90;;;;;;4958708;28;20031;-90
2021/09/24 05:12:56;;;;;;;9.30;5.50;;;12.50;91.80;;;;;;4974317;28;20308;-89
2021/09/24 05:15:57;;;;;;;6.45;5.22;;;12.50;91.90;;;;;;4966780;28;20027;-90
2021/09/24 05:18:38;;;;;;;8.18;4.68;;;12.50;92.00;;;;;;4972783;28;20259;-89
2021/09/24 05:21:07;;;;;;;6.45;5.35;;;12.60;91.90;;;;;;4967413;28;20118;-90
2021/09/24 05:23:37;;;;;;;6.32;4.97;;;12.60;91.90;;;;;;4958170;28;20022;-89
2021/09/24 05:26:11;;;;;;;6.93;5.25;;;12.60;91.90;;;;;;4963057;28;20031;-90
2021/09/24 05:28:45;;;;;;;7.22;5.15;;;12.70;91.90;;;;;;4969357;28;20030;-90
2021/09/24 05:31:20;;;;;;;7.45;5.22;;;12.70;91.90;;;;;;4974150;28;20092;-88
2021/09/24 05:33:47;;;;;;;9.38;5.60;;;12.70;91.90;;;;;;4968153;28;20494;-87
2021/09/24 05:36:12;;;;;;;8.32;5.70;;;12.60;91.80;;;;;;4981165;28;20041;-90
2021/09/24 05:38:43;;;;;;;7.43;5.68;;;12.60;91.80;;;;;;4974178;28;20026;-91
2021/09/24 05:41:09;;;;;;;8.38;6.00;;;12.60;91.90;;;;;;4975897;28;20683;-91
2021/09/24 05:43:36;;;;;;;8.88;6.00;;;12.60;91.90;;;;;;4986588;28;20026;-90
2021/09/24 05:46:02;;;;;;;6.70;5.13;;;12.60;92.00;;;;;;4979971;28;20022;-90
2021/09/24 05:48:28;;;;;;;9.20;6.03;;;12.60;92.00;;;;;;4974481;28;20035;-90
2021/09/24 05:50:55;;;;;;;7.53;5.47;;;12.70;92.00;;;;;;4973482;28;20029;-91
2021/09/24 05:53:21;;;;;;;8.60;5.53;;;12.70;91.90;;;;;;4969232;28;20033;-90
2021/09/24 05:55:46;;;;;;;9.20;6.65;;;12.70;91.90;;;;;;4966100;28;20105;-89
2021/09/24 05:58:12;;;;;;;8.68;6.00;;;12.70;92.00;;;;;;4965408;28;20060;-89
2021/09/24 06:00:39;;;;;;;10.02;5.70;;;12.70;91.90;;;;;;4965029;28;20030;-90
2021/09/24 06:04:01;;;;;;;8.77;5.55;;;12.80;92.00;;;;;;4967619;28;20026;-90
2021/09/24 06:06:21;;;;;;;6.20;4.93;;;12.80;92.00;;;;;;4988634;28;20030;-90
2021/09/24 06:08:50;;;;;;;12.73;6.43;;;12.90;92.00;;;;;;4963405;28;20023;-90
2021/09/24 06:11:17;;;;;;;8.40;5.88;;;12.90;91.90;;;;;;4972450;28;20096;-91
2021/09/24 06:14:02;;;;;;;10.95;6.43;;;12.90;91.90;;;;;;4972682;28;20117;-90
2021/09/24 06:16:39;;;;;;;7.70;6.03;;;12.90;92.00;;;;;;4966215;28;20039;-91
2021/09/24 06:19:23;;;;;;;6.40;5.53;;;13.00;91.90;;;;;;4968353;28;20042;-91
2021/09/24 06:22:00;;;;;;;10.77;7.57;;;13.00;91.90;;;;;;4959301;28;20081;-89
2021/09/24 06:24:38;;;;;;;9.80;6.78;;;13.00;91.90;;;;;;4964837;28;20031;-90
2021/09/24 06:27:33;;;;;;;;;;;;;;;;;;;;;
2021/09/24 06:33:04;;;;;;;8.13;6.13;;;13.10;91.90;;;;;;4986139;28;20064;-90
2021/09/24 06:35:30;;;;;;;10.80;6.00;;;13.20;91.90;;;;;;4974143;28;20030;-89
2021/09/24 06:38:16;;;;;;;6.57;5.60;;;13.20;91.80;;;;;;4966225;28;20402;-89
2021/09/24 06:41:13;;;;;;;13.52;5.78;;;13.20;91.90;;;;;;4970455;28;20035;-89
2021/09/24 06:46:35;;;;;;;10.68;6.20;;;13.30;91.70;;;;;;4985461;28;20026;-91
2021/09/24 06:49:20;;;;;;;;;;;;;;;;;;;;;
2021/09/24 06:51:51;;;;;;;8.25;5.88;;;13.40;91.70;;;;;;4985052;28;20033;-91
2021/09/24 06:54:21;;;;;;;8.15;5.53;;;13.50;91.70;;;;;;4972119;28;20030;-91
2021/09/24 06:56:53;;;;;;;8.40;6.18;;;13.60;91.70;;;;;;4964777;28;20392;-91
2021/09/24 06:59:19;;;;;;;9.13;6.00;;;13.70;91.70;;;;;;4968375;28;20034;-91
2021/09/24 07:01:48;;;;;;;6.82;5.80;;;13.70;91.60;;;;;;4972466;28;20133;-91
2021/09/24 07:04:15;;;;;;;9.40;5.63;;;13.80;91.60;;;;;;4971173;28;20101;-91
2021/09/24 07:06:41;;;;;;;8.55;5.72;;;13.90;91.50;;;;;;4972778;28;20018;-92
2021/09/24 07:09:23;;;;;;;7.78;5.50;;;14.00;91.50;;;;;;4986774;28;20034;-92
2021/09/24 07:11:58;;;;;;;;;;;14.20;91.40;;;;;;4975074;28;20125;-91
2021/09/24 07:14:43;;;;;;;8.00;6.07;;;14.40;91.30;;;;;;4963784;28;19947;-92
2021/09/24 07:17:27;;;;;;;8.32;5.38;;;14.40;91.30;;;;;;4968200;28;20062;-92
2021/09/24 07:20:10;;;;;;;7.15;5.57;;;14.60;91.30;;;;;;4979936;28;20341;-90
2021/09/24 07:22:54;;;;;;;;;;;;;;;;;;;;;
2021/09/24 07:25:38;;;;;;;5.93;4.97;;;16.00;90.00;;;;;;4980946;28;20038;-90
2021/09/24 07:28:23;;;;;;;5.60;4.57;;;16.70;88.60;;;;;;4977943;28;20038;-91
2021/09/24 07:30:56;;;;;;;6.88;4.57;;;16.90;87.80;;;;;;4959671;28;20059;-90
2021/09/24 07:33:28;;;;;;;5.45;4.13;;;17.10;87.60;;;;;;4958238;28;20038;-91
2021/09/24 07:36:04;;;;;;;;;;;17.50;87.20;;;;;;4966706;28;20045;-91
2021/09/24 07:38:43;;;;;;;7.20;4.28;;;17.70;86.80;;;;;;4973682;28;19953;-92
2021/09/24 07:41:23;;;;;;;7.35;4.70;;;18.20;85.80;;;;;;4975964;28;20061;-92
2021/09/24 07:44:19;;;;;;;5.70;3.97;;;18.80;85.00;;;;;;4977061;28;20030;-92
2021/09/24 07:47:30;;;;;;;5.07;4.57;;;19.50;83.80;;;;;;4978327;28;20502;-93
2021/09/24 07:50:22;;;;;;;5.75;3.97;;;19.80;81.60;;;;;;4973605;28;20022;-91
2021/09/24 07:52:57;;;;;;;4.85;4.35;;;19.90;81.20;;;;;;4985840;28;20019;-91
2021/09/24 07:55:47;;;;;;;6.68;4.57;;;19.80;81.00;;;;;;4989815;28;20069;-92
2021/09/24 08:01:11;;;;;;;4.78;4.03;;;19.60;81.70;;;;;;4977297;28;20070;-93
2021/09/24 08:03:44;;;;;;;7.82;4.55;;;19.60;82.10;;;;;;4976110;28;20026;-92
2021/09/24 08:06:33;;;;;;;6.40;4.28;;;19.70;81.50;;;;;;4975929;28;20034;-91
2021/09/24 08:09:24;;;;;;;6.88;4.35;;;19.70;81.10;;;;;;4969391;28;20086;-93
2021/09/24 08:12:24;;;;;;;7.40;4.95;;;19.60;81.60;;;;;;4981806;28;20030;-90
2021/09/24 08:15:41;;;;;;;7.05;4.82;;;19.50;81.20;;;;;;4985018;28;20022;-91
2021/09/24 08:18:20;;;;;;;6.07;4.50;;;19.20;81.50;;;;;;4989675;28;20030;-93
2021/09/24 08:21:00;;;;;;;5.78;4.63;;;19.00;82.40;;;;;;4972666;28;20050;-92
2021/09/24 08:23:53;;;;;;;7.13;4.25;;;18.90;82.70;;;;;;4975333;28;20026;-92
2021/09/24 08:26:43;;;;;;;;;;;;;;;;;;;;;
2021/09/24 08:29:15;;;;;;;5.05;4.13;;;19.10;84.20;;;;;;4978180;28;20813;-93
2021/09/24 08:31:54;;;;;;;6.15;4.03;;;19.40;84.20;;;;;;4969701;28;20034;-92
2021/09/24 08:34:45;;;;;;;8.50;4.80;;;19.50;83.00;;;;;;4974807;28;20030;-92
2021/09/24 08:37:35;;;;;;;11.23;5.13;;;19.50;82.50;;;;;;4967016;28;20471;-93
2021/09/24 08:40:22;;;;;;;7.35;4.40;;;19.40;82.00;;;;;;4966493;28;20126;-91
2021/09/24 08:43:17;;;;;;;5.30;4.15;;;19.40;82.60;;;;;;4958225;28;20027;-93
2021/09/24 08:48:48;;;;;;;5.90;4.22;;;19.30;82.40;;;;;;4995000;28;20283;-93
2021/09/24 08:51:30;;;;;;;8.00;5.00;;;19.30;82.10;;;;;;4978130;28;20057;-92
2021/09/24 08:54:14;;;;;;;10.00;4.45;;;19.20;81.70;;;;;;4979782;28;20113;-93
2021/09/24 08:57:03;;;;;;;5.20;4.10;;;19.20;82.20;;;;;;4966361;28;20111;-90
2021/09/24 08:59:47;;;;;;;10.20;4.65;;;19.20;82.20;;;;;;4963694;28;20089;-92
2021/09/24 09:02:29;;;;;;;5.97;4.20;;;19.20;81.70;;;;;;4969614;28;20490;-92
2021/09/24 09:05:10;;;;;;;6.28;3.90;;;19.20;82.20;;;;;;4975959;28;20041;-92
2021/09/24 09:08:07;;;;;;;6.57;3.63;;;19.20;82.40;;;;;;4977426;28;20023;-92
2021/09/24 09:11:10;;;;;;;;;;;;;;;;;;;;;
2021/09/24 09:13:49;;;;;;;4.15;3.75;;;19.10;81.60;;;;;;4971516;28;20048;-92
2021/09/24 09:16:29;;;;;;;9.98;4.13;;;19.10;82.00;;;;;;4976192;28;20030;-92
2021/09/24 09:19:44;;;;;;;8.05;4.50;;;19.00;81.90;;;;;;4965530;28;20082;-92
2021/09/24 09:22:59;;;;;;;;;;;;;;;;;;;;;
2021/09/24 09:25:50;;;;;;;7.38;4.40;;;19.00;82.30;;;;;;4953716;28;20130;-90
2021/09/24 09:28:53;;;;;;;7.70;3.97;;;19.10;81.70;;;;;;4990513;28;20611;-92
2021/09/24 09:32:12;;;;;;;6.75;4.03;;;19.10;81.80;;;;;;4974417;28;20178;-92
2021/09/24 09:34:54;;;;;;;8.40;4.40;;;19.00;82.10;;;;;;4974565;28;20026;-91
2021/09/24 09:37:45;;;;;;;5.50;4.03;;;18.80;81.80;;;;;;4963861;28;20054;-91
2021/09/24 09:40:26;;;;;;;8.00;3.83;;;18.80;81.90;;;;;;4974273;28;20058;-92
2021/09/24 09:43:20;;;;;;;7.72;3.53;;;18.80;82.00;;;;;;4970622;28;20023;-91
2021/09/24 10:19:56;;;;;;;4.28;2.40;;;19.20;81.90;;;;;;4970873;28;20039;-91
2021/09/24 10:22:47;;;;;;;3.92;2.25;;;19.20;81.70;;;;;;4985216;28;20042;-89
2021/09/24 10:25:23;;;;;;;4.63;2.70;;;19.10;81.10;;;;;;4966691;28;20022;-90
2021/09/24 10:28:10;;;;;;;3.35;2.10;;;19.00;81.40;;;;;;4973005;28;20026;-90
2021/09/24 10:30:40;;;;;;;3.30;2.08;;;19.00;81.50;;;;;;4967198;28;20027;-91
2021/09/24 10:33:38;;;;;;;4.25;2.28;;;19.20;81.60;;;;;;4952672;29;20053;-92
2021/09/24 10:36:41;;;;;;;3.15;2.20;;;19.40;81.60;;;;;;4943737;29;20401;-92
2021/09/24 10:46:52;;;;;;;4.45;2.00;;;20.10;80.80;;;;;;5016583;28;20541;-92
2021/09/24 10:49:19;;;;;;;2.25;1.75;;;20.20;80.40;;;;;;4987205;28;20038;-90
2021/09/24 10:52:14;;;;;;;2.88;2.10;;;20.30;80.00;;;;;;4982813;28;20040;-90
2021/09/24 10:55:09;;;;;;;4.72;2.03;;;20.30;79.90;;;;;;4981817;28;20499;-90
2021/09/24 10:58:04;;;;;;;9.13;2.40;;;20.20;79.60;;;;;;4962725;28;20037;-90
2021/09/24 11:00:32;;;;;;;2.10;1.90;;;20.10;79.20;;;;;;4978323;28;20026;-90
2021/09/24 11:03:14;;;;;;;2.50;1.60;;;20.00;79.90;;;;;;4997841;28;20120;-90
2021/09/24 11:05:58;;;;;;;1.73;1.55;;;20.10;80.20;;;;;;4997678;28;20017;-90
2021/09/24 11:08:33;;;;;;;3.08;1.95;;;20.20;79.80;;;;;;4994759;28;20403;-90
2021/09/24 11:11:28;;;;;;;2.17;1.90;;;20.40;79.60;;;;;;4983833;28;20053;-90
2021/09/24 11:14:00;;;;;;;3.13;2.38;;;20.50;79.20;;;;;;4979957;28;20614;-89
2021/09/24 11:16:43;;;;;;;6.30;2.00;;;20.50;79.00;;;;;;4978578;28;20027;-89
2021/09/24 11:19:35;;;;;;;1.88;1.77;;;20.50;78.50;;;;;;4977940;28;20272;-90
2021/09/24 11:22:04;;;;;;;2.47;1.73;;;20.40;78.30;;;;;;4998837;28;20038;-90
2021/09/24 11:24:36;;;;;;;5.65;1.60;;;20.30;78.90;;;;;;4996164;28;20073;-89
2021/09/24 11:27:09;;;;;;;3.95;2.00;;;20.40;78.70;;;;;;4997438;28;20022;-90
2021/09/24 11:30:05;;;;;;;2.33;1.50;;;20.50;78.70;;;;;;4997359;28;20048;-91
2021/09/24 11:32:39;;;;;;;3.13;1.45;;;20.70;78.90;;;;;;4999665;28;20165;-91
2021/09/24 11:35:06;;;;;;;5.05;1.42;;;21.00;78.90;;;;;;5015574;28;20032;-90
2021/09/24 11:37:34;;;;;;;2.67;0.80;;;21.20;78.60;;;;;;5001584;28;20030;-90
2021/09/24 11:40:12;;;;;;;1.30;0.90;;;21.50;78.30;;;;;;5026330;28;20513;-91
2021/09/24 11:42:40;;;;;;;4.57;0.77;;;21.60;77.00;;;;;;5022805;28;20010;-90
2021/09/24 11:45:09;;;;;;;0.90;0.60;;;21.80;76.90;;;;;;5014420;28;20045;-90
2021/09/24 11:47:42;;;;;;;1.48;0.90;;;21.90;76.40;;;;;;5014613;28;20041;-90
2021/09/24 11:50:08;;;;;;;2.35;1.38;;;22.00;75.50;;;;;;5014244;28;20030;-91
2021/09/24 11:52:47;;;;;;;2.63;1.05;;;21.80;75.10;;;;;;5032140;28;20026;-91
2021/09/24 11:55:31;;;;;;;1.23;1.13;;;21.70;74.80;;;;;;5014037;28;20029;-90
2021/09/24 11:58:04;;;;;;;2.75;0.98;;;21.50;74.50;;;;;;5000703;28;20029;-90
2021/09/24 12:00:57;;;;;;;2.75;1.30;;;21.50;75.10;;;;;;5013124;28;20098;-90
2021/09/24 12:03:28;;;;;;;3.83;1.02;;;21.60;75.10;;;;;;5009832;28;20098;-90
2021/09/24 12:06:09;;;;;;;1.83;1.30;;;21.60;75.00;;;;;;5013990;28;20022;-90
2021/09/24 12:08:42;;;;;;;1.80;1.20;;;21.70;75.10;;;;;;5021401;28;20021;-90
2021/09/24 12:11:12;;;;;;;1.98;1.15;;;21.60;75.00;;;;;;5004822;28;20268;-90
2021/09/24 12:13:37;;;;;;;1.38;1.27;;;21.60;75.00;;;;;;4999235;28;20045;-90
2021/09/24 12:16:04;;;;;;;1.00;0.90;;;21.70;75.50;;;;;;4999215;28;20022;-90
2021/09/24 12:18:48;;;;;;;1.33;1.00;;;21.80;75.40;;;;;;5001325;28;20022;-90
2021/09/24 12:21:15;;;;;;;1.48;1.00;;;21.90;74.20;;;;;;4998645;28;20044;-90
2021/09/24 12:23:42;;;;;;;1.95;0.95;;;22.00;74.50;;;;;;4998530;28;20022;-90
2021/09/24 12:26:09;;;;;;;1.15;0.80;;;22.20;74.10;;;;;;4997319;28;20572;-90
2021/09/24 12:28:36;;;;;;;1.27;0.80;;;22.40;73.70;;;;;;4998681;28;20057;-90
2021/09/24 12:31:04;;;;;;;0.90;0.80;;;22.60;73.00;;;;;;4997800;28;20030;-90
2021/09/24 12:33:29;;;;;;;0.90;0.80;;;22.70;72.90;;;;;;5015321;28;20039;-91
2021/09/24 12:36:13;;;;;;;2.25;0.80;;;22.90;73.20;;;;;;4984465;28;20036;-90
2021/09/24 12:38:39;;;;;;;4.10;1.50;;;23.10;71.40;;;;;;4980546;28;20030;-90
2021/09/24 12:41:11;;;;;;;3.53;1.20;;;23.10;71.60;;;;;;4996901;28;20116;-90
2021/09/24 12:44:14;;;;;;;2.55;1.00;;;23.30;71.50;;;;;;5014490;28;20034;-90
2021/09/24 12:46:44;;;;;;;1.67;0.90;;;23.40;70.50;;;;;;4996470;28;20048;-90
2021/09/24 12:49:10;;;;;;;1.88;1.10;;;23.50;71.50;;;;;;4997235;28;20037;-89
2021/09/24 12:51:37;;;;;;;1.45;1.00;;;23.70;71.10;;;;;;5001187;28;20033;-90
2021/09/24 12:54:03;;;;;;;2.10;0.88;;;23.90;71.00;;;;;;5019366;28;20028;-91
2021/09/24 12:56:32;;;;;;;1.73;1.00;;;24.00;69.60;;;;;;5015895;28;20108;-90
2021/09/24 12:58:58;;;;;;;4.45;1.20;;;24.00;68.70;;;;;;4992476;28;20022;-90
2021/09/24 13:01:24;;;;;;;1.10;1.10;;;24.10;68.40;;;;;;5015489;28;20041;-90
2021/09/24 13:03:55;;;;;;;1.17;1.00;;;24.00;67.90;;;;;;4995845;28;20463;-89
2021/09/24 13:06:24;;;;;;;1.85;1.10;;;24.00;67.80;;;;;;4979814;28;20026;-90
2021/09/24 13:08:53;;;;;;;1.48;1.30;;;24.00;68.00;;;;;;4978745;28;20671;-90
2021/09/24 13:11:29;;;;;;;1.13;0.90;;;23.90;67.90;;;;;;4987765;28;20061;-89
2021/09/24 13:13:58;;;;;;;1.25;1.10;;;23.70;66.70;;;;;;5005969;28;20026;-91
2021/09/24 13:16:30;;;;;;;1.40;1.30;;;23.40;67.00;;;;;;5014196;28;20057;-90
2021/09/24 13:18:59;;;;;;;1.98;1.30;;;23.30;66.90;;;;;;4995889;28;20455;-89
2021/09/24 13:21:30;;;;;;;2.33;1.42;;;23.30;67.30;;;;;;4995915;28;20057;-89
2021/09/24 13:23:56;;;;;;;1.60;1.50;;;23.30;68.50;;;;;;4995849;28;20049;-90
2021/09/24 13:26:22;;;;;;;3.38;1.30;;;23.60;69.10;;;;;;4995253;28;20552;-91
2021/09/24 13:28:49;;;;;;;1.67;1.20;;;23.90;69.20;;;;;;5012548;28;20069;-90
2021/09/24 13:31:16;;;;;;;2.30;1.50;;;24.20;68.70;;;;;;4996442;28;20030;-91
2021/09/24 13:33:41;;;;;;;2.72;1.33;;;24.40;67.50;;;;;;4992093;28;20037;-90
2021/09/24 13:36:08;;;;;;;1.60;1.30;;;24.50;67.30;;;;;;4975821;28;20026;-90
2021/09/24 13:38:33;;;;;;;3.22;1.42;;;24.80;67.70;;;;;;4976442;28;20052;-91
2021/09/24 13:40:59;;;;;;;3.45;1.30;;;25.00;67.10;;;;;;4989446;28;20458;-90
2021/09/24 13:43:25;;;;;;;1.75;1.13;;;25.10;66.70;;;;;;4995333;28;20040;-91
2021/09/24 13:45:51;;;;;;;2.25;1.48;;;25.20;67.30;;;;;;4992315;28;20100;-90
2021/09/24 13:48:22;;;;;;;1.48;1.38;;;25.30;66.80;;;;;;4992259;28;20112;-91
2021/09/24 13:50:48;;;;;;;2.22;1.60;;;25.30;65.90;;;;;;4995597;28;20025;-90
2021/09/24 13:53:15;;;;;;;4.40;1.70;;;25.20;65.70;;;;;;4995172;28;20065;-90
2021/09/24 13:55:41;;;;;;;2.20;1.52;;;25.20;64.40;;;;;;4991434;28;20356;-90
2021/09/24 13:58:07;;;;;;;1.90;1.40;;;25.00;63.70;;;;;;4992422;28;20482;-89
2021/09/24 14:00:33;;;;;;;3.10;1.83;;;24.80;63.60;;;;;;4994738;28;20149;-89
2021/09/24 14:02:59;;;;;;;3.28;1.63;;;24.50;63.40;;;;;;4975809;28;20026;-90
2021/09/24 14:05:24;;;;;;;3.10;1.58;;;24.30;63.80;;;;;;4999535;28;20385;-89
2021/09/24 14:07:50;;;;;;;5.25;1.80;;;24.00;63.60;;;;;;4993772;28;20125;-90
2021/09/24 14:10:16;;;;;;;3.88;1.95;;;23.80;63.80;;;;;;4975930;28;20475;-90
2021/09/24 14:12:43;;;;;;;2.35;1.88;;;23.60;64.00;;;;;;4986508;28;20060;-90
2021/09/24 14:15:12;;;;;;;3.47;1.63;;;23.40;63.80;;;;;;4988754;28;20027;-90
2021/09/24 14:17:38;;;;;;;3.08;2.03;;;23.30;63.90;;;;;;4988805;28;20031;-90
2021/09/24 14:20:06;;;;;;;4.30;2.05;;;23.10;64.00;;;;;;5000112;28;20482;-89
2021/09/24 14:22:32;;;;;;;5.40;2.03;;;22.80;64.60;;;;;;4999972;28;20037;-91
2021/09/24 14:24:58;;;;;;;1.98;1.65;;;22.70;65.00;;;;;;4987774;28;20102;-91
2021/09/24 14:27:26;;;;;;;4.45;1.80;;;22.60;65.30;;;;;;4999203;28;20022;-90